Time,TemperatureF,DewpointF,PressureIn,WindDirection,WindDirectionDegrees,WindSpeedMPH,WindSpeedGustMPH,Humidity,HourlyPrecipIn,Conditions,Clouds,dailyrainin,SoftwareType,DateUTC
2013-01-24 00:03:00,25.3,11.0,30.44,NW,315,2.9,2.9,54,0.00,,---,0.00,VWS V14.01,2013-01-24 06:03:00,
2013-01-24 00:08:00,25.3,11.0,30.44,NNE,22,0.0,0.0,54,0.00,,---,0.00,VWS V14.01,2013-01-24 06:08:00,
2013-01-24 00:20:00,25.0,10.7,30.44,North,0,0.0,0.0,54,0.00,,---,0.00,VWS V14.01,2013-01-24 06:20:00,
2013-01-24 00:25:00,24.4,10.6,30.41,NNE,22,2.0,2.0,55,0.00,,---,0.00,VWS V14.01,2013-01-24 06:25:00,
2013-01-24 00:30:00,24.3,10.4,30.44,West,270,4.3,4.3,55,0.00,,---,0.00,VWS V14.01,2013-01-24 06:30:00,
2013-01-24 00:35:00,24.1,10.3,30.44,NE,45,2.0,2.0,55,0.00,,---,0.00,VWS V14.01,2013-01-24 06:35:00,
2013-01-24 00:40:00,24.1,10.3,30.44,North,0,0.0,2.0,55,0.00,,---,0.00,VWS V14.01,2013-01-24 06:40:00,
2013-01-24 00:45:00,23.9,10.1,30.44,SSE,158,0.0,0.0,55,0.00,,---,0.00,VWS V14.01,2013-01-24 06:45:00,
2013-01-24 00:50:00,23.7,9.9,30.44,NNE,22,0.0,2.5,55,0.00,,---,0.00,VWS V14.01,2013-01-24 06:50:00,
2013-01-24 00:55:00,23.7,9.9,30.44,North,0,2.0,2.0,55,0.00,,---,0.00,VWS V14.01,2013-01-24 06:55:00,
2013-01-24 01:00:00,23.5,9.8,30.44,NE,45,0.0,0.0,55,0.00,,---,0.00,VWS V14.01,2013-01-24 07:00:00,
2013-01-24 01:05:00,23.4,9.6,30.44,East,90,0.0,0.0,55,0.00,,---,0.00,VWS V14.01,2013-01-24 07:05:00,
2013-01-24 01:10:00,23.2,9.4,30.44,East,90,0.0,0.0,55,0.00,,---,0.00,VWS V14.01,2013-01-24 07:10:00,
2013-01-24 01:15:00,23.2,9.8,30.44,East,90,1.1,4.0,56,0.00,,---,0.00,VWS V14.01,2013-01-24 07:15:00,
2013-01-24 01:20:00,23.0,9.7,30.44,North,0,0.0,0.0,56,0.00,,---,0.00,VWS V14.01,2013-01-24 07:20:00,
2013-01-24 01:25:00,23.0,9.7,30.44,ENE,68,1.1,2.7,56,0.00,,---,0.00,VWS V14.01,2013-01-24 07:25:00,
2013-01-24 01:30:00,23.0,10.1,30.44,NNW,338,2.9,5.8,57,0.00,,---,0.00,VWS V14.01,2013-01-24 07:30:00,
2013-01-24 08:00:00,11.8,-2.4,30.47,ENE,68,0.0,0.0,52,0.00,,---,0.00,VWS V14.01,2013-01-24 14:00:00,
2013-01-24 08:05:00,12.0,-2.2,30.47,NE,45,0.0,2.2,52,0.00,,---,0.00,VWS V14.01,2013-01-24 14:05:00,
2013-01-24 08:10:00,12.2,-2.0,30.47,East,90,0.9,1.6,52,0.00,,---,0.00,VWS V14.01,2013-01-24 14:10:00,
2013-01-24 08:15:00,12.4,-1.9,30.47,ESE,112,0.0,2.5,52,0.00,,---,0.00,VWS V14.01,2013-01-24 14:15:00,
2013-01-24 08:20:00,12.7,-1.5,30.47,East,90,0.9,4.0,52,0.00,,---,0.00,VWS V14.01,2013-01-24 14:20:00,
2013-01-24 08:25:00,12.6,-1.7,30.47,East,90,0.9,2.9,52,0.00,,---,0.00,VWS V14.01,2013-01-24 14:25:00,
2013-01-24 08:30:00,12.7,-1.5,30.47,SSE,158,1.1,2.5,52,0.00,,---,0.00,VWS V14.01,2013-01-24 14:30:00,
2013-01-24 08:35:00,12.9,-1.4,30.47,ESE,112,2.0,3.4,52,0.00,,---,0.00,VWS V14.01,2013-01-24 14:35:00,
2013-01-24 08:40:00,13.3,-1.0,30.47,East,90,2.7,3.4,52,0.00,,---,0.00,VWS V14.01,2013-01-24 14:40:00,
2013-01-24 08:42:00,13.3,-1.0,30.47,SE,135,0.9,4.0,52,0.00,,---,0.00,VWS V14.01,2013-01-24 14:42:00,
2013-01-24 09:04:00,13.3,-1.0,30.47,SE,135,0.9,4.0,52,0.00,,---,0.00,VWS V14.01,2013-01-24 15:04:00,
2013-01-24 09:09:00,14.4,-0.4,30.47,NE,45,0.0,3.1,51,0.00,,---,0.00,VWS V14.01,2013-01-24 15:09:00,
2013-01-24 09:14:00,14.5,-0.3,30.47,East,90,3.6,3.6,51,0.00,,---,0.00,VWS V14.01,2013-01-24 15:14:00,
2013-01-24 09:19:00,14.7,-0.1,30.47,NE,45,0.9,5.8,51,0.00,,---,0.00,VWS V14.01,2013-01-24 15:19:00,
2013-01-24 09:24:00,14.9,-0.4,30.47,ESE,112,2.7,2.9,50,0.00,,---,0.00,VWS V14.01,2013-01-24 15:24:00,
2013-01-24 09:29:00,15.1,-0.2,30.47,East,90,1.1,2.0,50,0.00,,---,0.00,VWS V14.01,2013-01-24 15:29:00,
2013-01-24 09:34:00,15.8,0.9,30.50,NE,45,2.0,3.8,51,0.00,,---,0.00,VWS V14.01,2013-01-24 15:34:00,
2013-01-24 09:39:00,16.5,1.1,30.50,ESE,112,3.4,3.4,50,0.00,,---,0.00,VWS V14.01,2013-01-24 15:39:00,
2013-01-24 09:44:00,16.9,1.5,30.50,NE,45,2.9,4.0,50,0.00,,---,0.00,VWS V14.01,2013-01-24 15:44:00,
2013-01-24 09:49:00,17.6,2.1,30.50,ENE,68,2.2,4.0,50,0.00,,---,0.00,VWS V14.01,2013-01-24 15:49:00,
2013-01-24 09:54:00,17.8,1.9,30.50,NE,45,4.0,4.0,49,0.00,,---,0.00,VWS V14.01,2013-01-24 15:54:00,
2013-01-24 09:58:00,18.1,2.2,30.50,North,0,0.9,5.6,49,0.00,,---,0.00,VWS V14.01,2013-01-24 15:58:00,
2013-01-24 10:03:00,18.7,2.7,30.47,NW,315,4.0,4.9,49,0.00,,---,0.00,VWS V14.01,2013-01-24 16:03:00,
2013-01-24 10:08:00,18.9,2.4,30.47,SW,225,2.0,3.1,48,0.00,,---,0.00,VWS V14.01,2013-01-24 16:08:00,
2013-01-24 10:13:00,19.0,2.6,30.47,ESE,112,3.1,3.1,48,0.00,,---,0.00,VWS V14.01,2013-01-24 16:13:00,
2013-01-24 10:18:00,20.1,3.6,30.50,ENE,68,2.2,2.2,48,0.00,,---,0.00,VWS V14.01,2013-01-24 16:18:00,
2013-01-24 10:23:00,20.3,3.8,30.50,East,90,4.3,4.3,48,0.00,,---,0.00,VWS V14.01,2013-01-24 16:23:00,
2013-01-24 10:29:00,20.8,4.2,30.50,East,90,4.3,4.3,48,0.00,,---,0.00,VWS V14.01,2013-01-24 16:29:00,
2013-01-24 10:34:00,21.6,4.5,30.50,ESE,112,2.5,2.5,47,0.00,,---,0.00,VWS V14.01,2013-01-24 16:34:00,
2013-01-24 10:39:00,21.4,3.8,30.50,SE,135,0.0,4.3,46,0.00,,---,0.00,VWS V14.01,2013-01-24 16:39:00,
2013-01-24 10:44:00,21.7,4.2,30.50,East,90,0.9,3.6,46,0.00,,---,0.00,VWS V14.01,2013-01-24 16:44:00,
2013-01-24 10:49:00,21.9,4.3,30.47,ESE,112,3.1,3.4,46,0.00,,---,0.00,VWS V14.01,2013-01-24 16:49:00,
2013-01-24 10:54:00,22.6,5.0,30.47,NE,45,2.7,2.9,46,0.00,,---,0.00,VWS V14.01,2013-01-24 16:54:00,
2013-01-24 10:59:00,22.6,5.0,30.47,East,90,0.0,2.5,46,0.00,,---,0.00,VWS V14.01,2013-01-24 16:59:00,
2013-01-24 11:04:00,22.8,5.2,30.50,West,270,0.9,3.4,46,0.00,,---,0.00,VWS V14.01,2013-01-24 17:04:00,
2013-01-24 11:09:00,23.0,4.8,30.50,East,90,5.4,5.8,45,0.00,,---,0.00,VWS V14.01,2013-01-24 17:09:00,
2013-01-24 11:14:00,22.8,4.7,30.50,SSE,158,0.0,1.6,45,0.00,,---,0.00,VWS V14.01,2013-01-24 17:14:00,
2013-01-24 11:18:00,23.7,5.5,30.47,East,90,2.5,2.5,45,0.00,,---,0.00,VWS V14.01,2013-01-24 17:18:00,
2013-01-24 11:23:00,23.7,5.5,30.47,East,90,2.0,3.1,45,0.00,,---,0.00,VWS V14.01,2013-01-24 17:23:00,
2013-01-24 11:28:00,24.4,6.2,30.47,SW,225,2.2,2.5,45,0.00,,---,0.00,VWS V14.01,2013-01-24 17:28:00,
2013-01-24 11:33:00,25.2,6.3,30.47,NE,45,2.9,2.9,44,0.00,,---,0.00,VWS V14.01,2013-01-24 17:33:00,
2013-01-24 11:38:00,26.1,7.2,30.47,East,90,2.9,2.9,44,0.00,,---,0.00,VWS V14.01,2013-01-24 17:38:00,
2013-01-24 11:43:00,27.0,8.0,30.47,South,180,0.9,2.0,44,0.00,,---,0.00,VWS V14.01,2013-01-24 17:43:00,
2013-01-24 11:48:00,27.5,7.9,30.47,ESE,112,1.6,2.5,43,0.00,,---,0.00,VWS V14.01,2013-01-24 17:48:00,
2013-01-24 11:53:00,28.2,8.6,30.47,South,180,0.0,1.1,43,0.00,,---,0.00,VWS V14.01,2013-01-24 17:53:00,
2013-01-24 11:58:00,28.2,8.6,30.47,SE,135,0.0,1.3,43,0.00,,---,0.00,VWS V14.01,2013-01-24 17:58:00,
2013-01-24 12:03:00,27.9,7.8,30.44,NE,45,1.3,4.3,42,0.00,,---,0.00,VWS V14.01,2013-01-24 18:03:00,
2013-01-24 12:08:00,27.5,7.4,30.44,ESE,112,3.6,3.6,42,0.00,,---,0.00,VWS V14.01,2013-01-24 18:08:00,
2013-01-24 12:13:00,27.0,6.9,30.44,East,90,2.9,2.9,42,0.00,,---,0.00,VWS V14.01,2013-01-24 18:13:00,
2013-01-24 12:18:00,27.1,7.1,30.41,ESE,112,2.5,2.9,42,0.00,,---,0.00,VWS V14.01,2013-01-24 18:18:00,
2013-01-24 12:23:00,26.6,6.6,30.41,ENE,68,1.6,3.6,42,0.00,,---,0.00,VWS V14.01,2013-01-24 18:23:00,
2013-01-24 12:28:00,27.0,6.9,30.41,SSE,158,1.6,1.6,42,0.00,,---,0.00,VWS V14.01,2013-01-24 18:28:00,
2013-01-24 12:33:00,27.1,6.6,30.41,SSE,158,0.9,6.3,41,0.00,,---,0.00,VWS V14.01,2013-01-24 18:33:00,
2013-01-24 12:38:00,27.3,7.3,30.41,NNE,22,0.0,2.5,42,0.00,,---,0.00,VWS V14.01,2013-01-24 18:38:00,
2013-01-24 12:43:00,27.1,7.1,30.41,ENE,68,2.7,2.7,42,0.00,,---,0.00,VWS V14.01,2013-01-24 18:43:00,
2013-01-24 12:48:00,27.0,6.4,30.39,ESE,112,2.7,2.7,41,0.00,,---,0.00,VWS V14.01,2013-01-24 18:48:00,
2013-01-24 12:53:00,27.1,6.6,30.39,East,90,2.0,4.0,41,0.00,,---,0.00,VWS V14.01,2013-01-24 18:53:00,
2013-01-24 12:58:00,27.3,6.7,30.39,East,90,2.7,2.7,41,0.00,,---,0.00,VWS V14.01,2013-01-24 18:58:00,
2013-01-24 13:03:00,27.7,7.1,30.36,East,90,1.6,5.4,41,0.00,,---,0.00,VWS V14.01,2013-01-24 19:03:00,
2013-01-24 13:08:00,27.9,7.2,30.36,ESE,112,0.0,0.0,41,0.00,,---,0.00,VWS V14.01,2013-01-24 19:08:00,
2013-01-24 13:13:00,28.0,7.4,30.36,East,90,8.5,8.5,41,0.00,,---,0.00,VWS V14.01,2013-01-24 19:13:00,
2013-01-24 13:18:00,28.2,7.6,30.36,East,90,3.6,5.4,41,0.00,,---,0.00,VWS V14.01,2013-01-24 19:18:00,
2013-01-24 13:23:00,28.8,8.0,30.36,South,180,3.6,3.6,41,0.00,,---,0.00,VWS V14.01,2013-01-24 19:23:00,
2013-01-24 13:28:00,29.1,8.4,30.36,East,90,1.1,4.3,41,0.00,,---,0.00,VWS V14.01,2013-01-24 19:28:00,
2013-01-24 13:33:00,29.1,7.8,30.36,North,0,1.1,8.7,40,0.00,,---,0.00,VWS V14.01,2013-01-24 19:33:00,
2013-01-24 13:38:00,29.7,8.3,30.36,South,180,3.8,3.8,40,0.00,,---,0.00,VWS V14.01,2013-01-24 19:38:00,
2013-01-24 13:43:00,29.7,8.3,30.36,ESE,112,0.0,3.4,40,0.00,,---,0.00,VWS V14.01,2013-01-24 19:43:00,
2013-01-24 13:48:00,29.5,7.6,30.33,SE,135,0.0,0.0,39,0.00,,---,0.00,VWS V14.01,2013-01-24 19:48:00,
2013-01-24 13:53:00,29.5,7.6,30.33,ESE,112,3.4,3.4,39,0.00,,---,0.00,VWS V14.01,2013-01-24 19:53:00,
2013-01-24 13:58:00,29.1,7.3,30.33,NE,45,3.8,3.8,39,0.00,,---,0.00,VWS V14.01,2013-01-24 19:58:00,
2013-01-24 14:03:00,30.0,8.6,30.33,East,90,2.5,2.5,40,0.00,,---,0.00,VWS V14.01,2013-01-24 20:03:00,
2013-01-24 14:08:00,30.7,9.3,30.33,ENE,68,0.9,3.6,40,0.00,,---,0.00,VWS V14.01,2013-01-24 20:08:00,
2013-01-24 14:13:00,31.3,9.8,30.33,SE,135,0.9,3.4,40,0.00,,---,0.00,VWS V14.01,2013-01-24 20:13:00,
2013-01-24 14:18:00,31.1,9.1,30.33,ENE,68,0.0,0.0,39,0.00,,---,0.00,VWS V14.01,2013-01-24 20:18:00,
2013-01-24 14:23:00,31.3,9.2,30.33,ESE,112,2.2,2.2,39,0.00,,---,0.00,VWS V14.01,2013-01-24 20:23:00,
2013-01-24 14:28:00,31.3,9.2,30.33,South,180,0.0,0.0,39,0.00,,---,0.00,VWS V14.01,2013-01-24 20:28:00,
2013-01-24 14:33:00,31.1,8.5,30.30,ENE,68,1.1,3.1,38,0.00,,---,0.00,VWS V14.01,2013-01-24 20:33:00,
2013-01-24 14:38:00,30.7,8.1,30.30,NE,45,1.6,2.5,38,0.00,,---,0.00,VWS V14.01,2013-01-24 20:38:00,
2013-01-24 14:43:00,30.2,7.1,30.30,East,90,1.1,1.1,37,0.00,,---,0.00,VWS V14.01,2013-01-24 20:43:00,
2013-01-24 14:48:00,30.2,7.7,30.30,NE,45,2.0,2.0,38,0.00,,---,0.00,VWS V14.01,2013-01-24 20:48:00,
2013-01-24 14:53:00,30.7,8.1,30.30,South,180,0.9,1.6,38,0.00,,---,0.00,VWS V14.01,2013-01-24 20:53:00,
2013-01-24 14:58:00,31.1,8.5,30.30,East,90,2.9,2.9,38,0.00,,---,0.00,VWS V14.01,2013-01-24 20:58:00,
2013-01-24 15:03:00,30.9,7.7,30.30,East,90,0.9,0.9,37,0.00,,---,0.00,VWS V14.01,2013-01-24 21:03:00,
2013-01-24 15:08:00,30.4,7.2,30.30,ENE,68,6.3,6.3,37,0.00,,---,0.00,VWS V14.01,2013-01-24 21:08:00,
2013-01-24 15:13:00,30.2,7.1,30.30,ESE,112,3.6,3.6,37,0.00,,---,0.00,VWS V14.01,2013-01-24 21:13:00,
2013-01-24 15:18:00,30.0,6.9,30.30,SE,135,0.0,2.0,37,0.00,,---,0.00,VWS V14.01,2013-01-24 21:18:00,
2013-01-24 15:23:00,30.0,6.9,30.30,SSE,158,0.0,0.0,37,0.00,,---,0.00,VWS V14.01,2013-01-24 21:23:00,
2013-01-24 15:28:00,29.8,6.8,30.30,East,90,0.0,2.0,37,0.00,,---,0.00,VWS V14.01,2013-01-24 21:28:00,
2013-01-24 15:33:00,29.8,6.8,30.27,SE,135,0.0,2.0,37,0.00,,---,0.00,VWS V14.01,2013-01-24 21:33:00,
2013-01-24 15:38:00,29.5,6.4,30.27,South,180,2.0,2.5,37,0.00,,---,0.00,VWS V14.01,2013-01-24 21:38:00,
2013-01-24 15:43:00,29.3,6.3,30.27,SE,135,0.0,3.6,37,0.00,,---,0.00,VWS V14.01,2013-01-24 21:43:00,
2013-01-24 15:48:00,29.3,6.3,30.27,SE,135,2.5,4.0,37,0.00,,---,0.00,VWS V14.01,2013-01-24 21:48:00,
2013-01-24 15:53:00,28.9,5.9,30.27,South,180,2.5,2.5,37,0.00,,---,0.00,VWS V14.01,2013-01-24 21:53:00,
2013-01-24 15:58:00,28.9,5.9,30.27,South,180,1.6,1.6,37,0.00,,---,0.00,VWS V14.01,2013-01-24 21:58:00,
2013-01-24 16:03:00,28.8,5.8,30.27,SE,135,1.3,1.3,37,0.00,,---,0.00,VWS V14.01,2013-01-24 22:03:00,
2013-01-24 16:08:00,28.8,5.8,30.27,ENE,68,5.4,5.4,37,0.00,,---,0.00,VWS V14.01,2013-01-24 22:08:00,
2013-01-24 16:13:00,28.6,5.6,30.27,East,90,1.6,3.1,37,0.00,,---,0.00,VWS V14.01,2013-01-24 22:13:00,
2013-01-24 16:18:00,28.6,6.2,30.27,East,90,1.3,1.3,38,0.00,,---,0.00,VWS V14.01,2013-01-24 22:18:00,
2013-01-24 16:23:00,28.8,6.4,30.27,SE,135,1.3,1.3,38,0.00,,---,0.00,VWS V14.01,2013-01-24 22:23:00,
2013-01-24 16:28:00,28.6,5.6,30.27,South,180,0.0,2.0,37,0.00,,---,0.00,VWS V14.01,2013-01-24 22:28:00,
2013-01-24 16:33:00,28.6,6.2,30.27,SE,135,0.0,0.0,38,0.00,,---,0.00,VWS V14.01,2013-01-24 22:33:00,
2013-01-24 16:38:00,28.4,6.1,30.27,SSE,158,0.0,1.6,38,0.00,,---,0.00,VWS V14.01,2013-01-24 22:38:00,
2013-01-24 16:43:00,28.2,5.9,30.27,SE,135,1.1,1.1,38,0.00,,---,0.00,VWS V14.01,2013-01-24 22:43:00,
2013-01-24 16:48:00,28.2,5.9,30.27,ESE,112,2.9,2.9,38,0.00,,---,0.00,VWS V14.01,2013-01-24 22:48:00,
2013-01-24 16:53:00,28.2,6.4,30.27,NNE,22,1.1,2.7,39,0.00,,---,0.00,VWS V14.01,2013-01-24 22:53:00,
2013-01-24 16:58:00,28.2,6.4,30.27,SSE,158,0.0,0.0,39,0.00,,---,0.00,VWS V14.01,2013-01-24 22:58:00,
2013-01-24 17:03:00,28.0,6.3,30.27,SE,135,0.9,0.9,39,0.00,,---,0.00,VWS V14.01,2013-01-24 23:03:00,
2013-01-24 17:08:00,28.0,6.3,30.27,SE,135,1.3,1.3,39,0.00,,---,0.00,VWS V14.01,2013-01-24 23:08:00,
2013-01-24 17:13:00,27.9,6.7,30.27,NE,45,0.0,0.0,40,0.00,,---,0.00,VWS V14.01,2013-01-24 23:13:00,
2013-01-24 17:18:00,27.9,6.7,30.24,WSW,248,1.3,1.6,40,0.00,,---,0.00,VWS V14.01,2013-01-24 23:18:00,
2013-01-24 17:23:00,27.9,6.7,30.24,SSE,158,1.6,1.6,40,0.00,,---,0.00,VWS V14.01,2013-01-24 23:23:00,
2013-01-24 17:28:00,27.9,6.7,30.24,SE,135,0.0,0.0,40,0.00,,---,0.00,VWS V14.01,2013-01-24 23:28:00,
2013-01-24 17:33:00,27.7,6.5,30.24,SE,135,0.0,0.0,40,0.00,,---,0.00,VWS V14.01,2013-01-24 23:33:00,
2013-01-24 17:38:00,27.5,6.4,30.24,East,90,0.0,0.0,40,0.00,,---,0.00,VWS V14.01,2013-01-24 23:38:00,
2013-01-24 17:43:00,27.5,6.9,30.24,East,90,0.0,5.8,41,0.00,,---,0.00,VWS V14.01,2013-01-24 23:43:00,
2013-01-24 17:48:00,27.5,6.9,30.24,South,180,0.0,0.0,41,0.00,,---,0.00,VWS V14.01,2013-01-24 23:48:00,
2013-01-24 17:53:00,27.3,6.7,30.24,SE,135,0.0,0.0,41,0.00,,---,0.00,VWS V14.01,2013-01-24 23:53:00,
2013-01-24 17:58:00,27.3,6.7,30.24,SW,225,0.0,0.0,41,0.00,,---,0.00,VWS V14.01,2013-01-24 23:58:00,
2013-01-24 18:03:00,27.3,6.7,30.24,SE,135,0.0,0.0,41,0.00,,---,0.00,VWS V14.01,2013-01-25 00:03:00,
2013-01-24 18:08:00,27.1,6.6,30.24,SSW,202,0.9,0.9,41,0.00,,---,0.00,VWS V14.01,2013-01-25 00:08:00,
2013-01-24 18:13:00,27.1,6.6,30.24,South,180,0.9,0.9,41,0.00,,---,0.00,VWS V14.01,2013-01-25 00:13:00,
2013-01-24 18:18:00,27.1,6.6,30.24,South,180,0.0,0.0,41,0.00,,---,0.00,VWS V14.01,2013-01-25 00:18:00,
2013-01-24 18:23:00,27.1,6.6,30.24,SSE,158,0.0,2.2,41,0.00,,---,0.00,VWS V14.01,2013-01-25 00:23:00,
2013-01-24 18:28:00,27.1,6.6,30.24,East,90,1.1,1.1,41,0.00,,---,0.00,VWS V14.01,2013-01-25 00:28:00,
2013-01-24 18:33:00,27.0,6.4,30.24,SE,135,0.0,0.0,41,0.00,,---,0.00,VWS V14.01,2013-01-25 00:33:00,
2013-01-24 18:38:00,27.0,6.4,30.24,SSE,158,0.0,0.0,41,0.00,,---,0.00,VWS V14.01,2013-01-25 00:38:00,
2013-01-24 18:43:00,27.0,6.4,30.24,ENE,68,0.0,0.0,41,0.00,,---,0.00,VWS V14.01,2013-01-25 00:43:00,
2013-01-24 18:48:00,27.0,6.4,30.21,ESE,112,0.0,0.0,41,0.00,,---,0.00,VWS V14.01,2013-01-25 00:48:00,
2013-01-24 18:53:00,27.0,6.4,30.21,SE,135,0.9,0.9,41,0.00,,---,0.00,VWS V14.01,2013-01-25 00:53:00,
2013-01-24 18:58:00,26.8,6.2,30.21,ESE,112,2.7,2.9,41,0.00,,---,0.00,VWS V14.01,2013-01-25 00:58:00,
2013-01-24 19:03:00,26.8,6.2,30.21,ENE,68,0.9,0.9,41,0.00,,---,0.00,VWS V14.01,2013-01-25 01:03:00,
2013-01-24 19:08:00,26.8,6.2,30.21,East,90,0.0,2.0,41,0.00,,---,0.00,VWS V14.01,2013-01-25 01:08:00,
2013-01-24 19:13:00,26.8,6.2,30.21,East,90,1.3,1.3,41,0.00,,---,0.00,VWS V14.01,2013-01-25 01:13:00,
2013-01-24 19:18:00,26.8,6.8,30.24,East,90,1.1,1.1,42,0.00,,---,0.00,VWS V14.01,2013-01-25 01:18:00,
2013-01-24 19:23:00,26.8,6.8,30.24,East,90,0.0,3.1,42,0.00,,---,0.00,VWS V14.01,2013-01-25 01:23:00,
2013-01-24 19:28:00,26.8,6.8,30.24,NE,45,0.0,0.0,42,0.00,,---,0.00,VWS V14.01,2013-01-25 01:28:00,
2013-01-24 19:33:00,26.8,6.8,30.27,ENE,68,0.0,1.1,42,0.00,,---,0.00,VWS V14.01,2013-01-25 01:33:00,
2013-01-24 19:38:00,27.0,6.9,30.27,East,90,0.0,0.0,42,0.00,,---,0.00,VWS V14.01,2013-01-25 01:38:00,
2013-01-24 19:43:00,27.0,6.9,30.27,NE,45,0.0,0.0,42,0.00,,---,0.00,VWS V14.01,2013-01-25 01:43:00,
2013-01-24 19:48:00,27.0,6.9,30.24,South,180,1.3,1.3,42,0.00,,---,0.00,VWS V14.01,2013-01-25 01:48:00,
2013-01-24 19:53:00,27.0,6.9,30.24,SE,135,0.0,0.0,42,0.00,,---,0.00,VWS V14.01,2013-01-25 01:53:00,
2013-01-24 19:58:00,27.0,6.9,30.24,ENE,68,0.0,2.0,42,0.00,,---,0.00,VWS V14.01,2013-01-25 01:58:00,
2013-01-24 20:03:00,27.0,6.9,30.24,SSE,158,0.0,0.9,42,0.00,,---,0.00,VWS V14.01,2013-01-25 02:03:00,
2013-01-24 20:08:00,27.0,6.9,30.24,SSE,158,0.0,0.0,42,0.00,,---,0.00,VWS V14.01,2013-01-25 02:08:00,
2013-01-24 20:13:00,27.0,6.9,30.24,SSE,158,0.0,0.9,42,0.00,,---,0.00,VWS V14.01,2013-01-25 02:13:00,
2013-01-24 20:18:00,27.0,6.9,30.24,ENE,68,0.0,0.0,42,0.00,,---,0.00,VWS V14.01,2013-01-25 02:18:00,
2013-01-24 20:23:00,27.0,6.9,30.24,NE,45,0.0,0.0,42,0.00,,---,0.00,VWS V14.01,2013-01-25 02:23:00,
2013-01-24 20:28:00,27.0,6.9,30.24,SE,135,0.0,0.9,42,0.00,,---,0.00,VWS V14.01,2013-01-25 02:28:00,
2013-01-24 20:33:00,27.0,6.9,30.24,SE,135,0.0,0.0,42,0.00,,---,0.00,VWS V14.01,2013-01-25 02:33:00,
2013-01-24 20:38:00,27.0,6.9,30.24,SE,135,0.0,1.6,42,0.00,,---,0.00,VWS V14.01,2013-01-25 02:38:00,
2013-01-24 20:43:00,27.0,6.9,30.24,NE,45,0.0,0.0,42,0.00,,---,0.00,VWS V14.01,2013-01-25 02:43:00,
2013-01-24 20:48:00,27.0,6.9,30.21,SE,135,0.0,2.0,42,0.00,,---,0.00,VWS V14.01,2013-01-25 02:48:00,
2013-01-24 20:53:00,27.0,6.9,30.21,ENE,68,0.0,0.9,42,0.00,,---,0.00,VWS V14.01,2013-01-25 02:53:00,
2013-01-24 20:58:00,27.0,6.9,30.21,SE,135,0.0,0.9,42,0.00,,---,0.00,VWS V14.01,2013-01-25 02:58:00,
2013-01-24 21:03:00,27.0,6.9,30.21,SSE,158,0.0,0.0,42,0.00,,---,0.00,VWS V14.01,2013-01-25 03:03:00,
2013-01-24 21:08:00,27.0,6.9,30.21,SE,135,0.0,0.0,42,0.00,,---,0.00,VWS V14.01,2013-01-25 03:08:00,
2013-01-24 21:13:00,27.0,6.9,30.21,SE,135,0.0,0.0,42,0.00,,---,0.00,VWS V14.01,2013-01-25 03:13:00,
2013-01-24 21:18:00,27.0,6.9,30.21,SSE,158,0.0,0.0,42,0.00,,---,0.00,VWS V14.01,2013-01-25 03:18:00,
2013-01-24 21:23:00,27.0,7.5,30.21,ESE,112,0.9,2.0,43,0.00,,---,0.00,VWS V14.01,2013-01-25 03:23:00,
2013-01-24 21:28:00,27.0,7.5,30.21,WNW,292,1.1,1.1,43,0.00,,---,0.00,VWS V14.01,2013-01-25 03:28:00,
2013-01-24 21:33:00,27.0,7.5,30.21,NE,45,4.7,4.7,43,0.00,,---,0.00,VWS V14.01,2013-01-25 03:33:00,
2013-01-24 21:38:00,27.0,7.5,30.21,ENE,68,0.0,0.0,43,0.00,,---,0.00,VWS V14.01,2013-01-25 03:38:00,
2013-01-24 21:43:00,27.0,7.5,30.21,NNE,22,2.2,2.2,43,0.00,,---,0.00,VWS V14.01,2013-01-25 03:43:00,
2013-01-24 21:48:00,27.1,7.6,30.21,ENE,68,0.9,0.9,43,0.00,,---,0.00,VWS V14.01,2013-01-25 03:48:00,
2013-01-24 21:52:00,27.1,7.6,30.21,ENE,68,0.0,0.0,43,0.00,,---,0.00,VWS V14.01,2013-01-25 03:52:00,
2013-01-24 21:57:00,27.1,7.6,30.21,East,90,0.9,2.9,43,0.00,,---,0.00,VWS V14.01,2013-01-25 03:57:00,
2013-01-24 22:02:00,27.1,7.6,30.21,East,90,2.5,2.5,43,0.00,,---,0.00,VWS V14.01,2013-01-25 04:02:00,
2013-01-24 22:07:00,27.1,7.6,30.21,SSE,158,0.0,0.0,43,0.00,,---,0.00,VWS V14.01,2013-01-25 04:07:00,
2013-01-24 22:12:00,27.1,7.6,30.21,East,90,0.0,1.6,43,0.00,,---,0.00,VWS V14.01,2013-01-25 04:12:00,
2013-01-24 22:17:00,27.1,7.6,30.21,East,90,0.0,0.0,43,0.00,,---,0.00,VWS V14.01,2013-01-25 04:17:00,
2013-01-24 22:22:00,27.1,7.6,30.21,SSE,158,0.0,0.0,43,0.00,,---,0.00,VWS V14.01,2013-01-25 04:22:00,
2013-01-24 22:27:00,27.1,7.6,30.21,SE,135,0.0,0.0,43,0.00,,---,0.00,VWS V14.01,2013-01-25 04:27:00,
2013-01-24 22:32:00,27.1,7.6,30.18,South,180,0.0,0.0,43,0.00,,---,0.00,VWS V14.01,2013-01-25 04:32:00,
2013-01-24 22:37:00,27.1,7.6,30.18,SSE,158,0.0,0.9,43,0.00,,---,0.00,VWS V14.01,2013-01-25 04:37:00,
2013-01-24 22:42:00,27.1,7.6,30.18,SE,135,0.0,0.0,43,0.00,,---,0.00,VWS V14.01,2013-01-25 04:42:00,
2013-01-24 22:47:00,27.1,7.6,30.18,SSE,158,0.0,0.0,43,0.00,,---,0.00,VWS V14.01,2013-01-25 04:47:00,
2013-01-24 22:52:00,27.1,7.6,30.18,SW,225,0.0,0.0,43,0.00,,---,0.00,VWS V14.01,2013-01-25 04:52:00,
2013-01-24 22:57:00,27.1,7.6,30.18,SE,135,0.0,0.0,43,0.00,,---,0.00,VWS V14.01,2013-01-25 04:57:00,
2013-01-24 23:00:00,27.3,7.8,30.18,South,180,0.0,0.0,43,0.00,,---,0.00,VWS V14.01,2013-01-25 05:00:00,
2013-01-24 23:02:00,27.3,7.8,30.18,SE,135,0.0,0.9,43,0.00,,---,0.00,VWS V14.01,2013-01-25 05:02:00,
2013-01-24 23:03:00,27.3,7.8,30.18,East,90,1.1,1.1,43,0.00,,---,0.00,VWS V14.01,2013-01-25 05:03:00,
2013-01-24 23:08:00,27.3,7.8,30.18,ENE,68,0.0,0.0,43,0.00,,---,0.00,VWS V14.01,2013-01-25 05:08:00,
2013-01-24 23:13:00,27.3,7.8,30.18,SE,135,0.0,0.0,43,0.00,,---,0.00,VWS V14.01,2013-01-25 05:13:00,
2013-01-24 23:18:00,27.3,7.8,30.21,SE,135,0.0,0.0,43,0.00,,---,0.00,VWS V14.01,2013-01-25 05:18:00,
2013-01-24 23:23:00,27.3,7.8,30.21,SSE,158,0.0,0.0,43,0.00,,---,0.00,VWS V14.01,2013-01-25 05:23:00,
2013-01-24 23:28:00,27.3,7.8,30.21,ENE,68,0.0,0.0,43,0.00,,---,0.00,VWS V14.01,2013-01-25 05:28:00,
2013-01-24 23:33:00,27.3,7.8,30.18,South,180,0.0,0.0,43,0.00,,---,0.00,VWS V14.01,2013-01-25 05:33:00,
2013-01-24 23:38:00,27.3,7.8,30.18,NE,45,0.0,0.0,43,0.00,,---,0.00,VWS V14.01,2013-01-25 05:38:00,
2013-01-24 23:43:00,27.3,7.8,30.18,NE,45,0.0,0.0,43,0.00,,---,0.00,VWS V14.01,2013-01-25 05:43:00,
2013-01-24 23:48:00,27.5,7.9,30.18,ENE,68,3.1,3.1,43,0.00,,---,0.00,VWS V14.01,2013-01-25 05:48:00,
2013-01-24 23:53:00,27.5,7.9,30.18,SE,135,0.0,0.0,43,0.00,,---,0.00,VWS V14.01,2013-01-25 05:53:00,
2013-01-24 23:58:00,27.5,7.9,30.18,NE,45,0.0,0.0,43,0.00,,---,0.00,VWS V14.01,2013-01-25 05:58:00,